createdAt,value
2022-09-29T00:01:10.199Z,69.73
2022-09-29T00:03:37.378Z,69.49
2022-09-29T00:06:13.267Z,69.83
2022-09-29T00:08:42.224Z,70.10
2022-09-29T00:11:10.223Z,70.53
2022-09-29T00:13:39.612Z,70.24
2022-09-29T00:16:06.442Z,70.86
2022-09-29T00:18:36.823Z,70.69
2022-09-29T00:21:09.241Z,71.06
2022-09-29T00:23:36.856Z,71.10
2022-09-29T00:26:07.744Z,70.69
2022-09-29T00:28:35.187Z,70.79
2022-09-29T00:31:03.426Z,71.25
2022-09-29T00:33:31.850Z,70.93
2022-09-29T00:36:14.009Z,70.95
2022-09-29T00:38:41.976Z,71.11
2022-09-29T00:41:12.834Z,71.19
2022-09-29T00:43:55.397Z,71.41
2022-09-29T00:46:33.345Z,71.26
2022-09-29T00:49:08.210Z,71.00
2022-09-29T00:51:36.551Z,70.86
2022-09-29T00:54:03.669Z,70.54
2022-09-29T00:56:30.455Z,70.85
2022-09-29T00:59:00.384Z,70.71
2022-09-29T01:01:29.499Z,71.34
2022-09-29T01:04:17.313Z,70.73
2022-09-29T01:06:55.917Z,70.85
2022-09-29T01:09:29.347Z,71.30
2022-09-29T01:11:59.819Z,71.38
2022-09-29T01:14:28.078Z,71.86
2022-09-29T01:16:54.813Z,71.85
2022-09-29T01:19:46.455Z,71.65
2022-09-29T01:22:19.161Z,71.65
2022-09-29T01:25:21.066Z,71.73
2022-09-29T01:27:56.042Z,71.53
2022-09-29T01:30:22.712Z,72.01
2022-09-29T01:33:07.019Z,71.89
2022-09-29T01:35:36.629Z,72.09
2022-09-29T01:38:42.725Z,71.87
2022-09-29T01:41:12.169Z,71.71
2022-09-29T01:44:20.645Z,72.16
2022-09-29T01:46:54.164Z,72.26
2022-09-29T01:49:22.163Z,71.87
2022-09-29T01:52:18.765Z,71.82
2022-09-29T01:54:59.071Z,71.82
2022-09-29T01:57:39.764Z,71.78
2022-09-29T02:00:10.825Z,72.36
2022-09-29T02:02:57.266Z,72.38
2022-09-29T02:05:33.899Z,72.49
2022-09-29T02:08:15.025Z,72.61
2022-09-29T02:11:07.329Z,72.42
2022-09-29T02:14:01.462Z,72.63
2022-09-29T02:16:31.254Z,72.67
2022-09-29T02:19:08.744Z,72.42
2022-09-29T02:21:37.869Z,72.61
2022-09-29T02:24:09.652Z,72.68
2022-09-29T02:26:36.371Z,72.75
2022-09-29T02:29:04.948Z,72.50
2022-09-29T02:31:37.697Z,72.79
2022-09-29T02:34:14.837Z,72.85
2022-09-29T02:36:50.692Z,73.03
2022-09-29T02:39:32.358Z,72.87
2022-09-29T02:42:14.047Z,72.85
2022-09-29T02:44:55.626Z,72.82
2022-09-29T02:47:27.623Z,72.86
2022-09-29T02:50:19.894Z,72.72
2022-09-29T02:53:00.086Z,73.25
2022-09-29T02:55:29.864Z,73.24
2022-09-29T02:58:18.317Z,73.53
2022-09-29T03:00:54.549Z,73.39
2022-09-29T03:03:21.783Z,73.70
2022-09-29T03:05:49.058Z,74.16
2022-09-29T03:08:17.970Z,74.38
2022-09-29T03:10:44.667Z,75.14
2022-09-29T03:13:18.216Z,75.42
2022-09-29T03:15:50.175Z,76.36
2022-09-29T03:18:16.890Z,76.50
2022-09-29T03:20:43.612Z,77.00
2022-09-29T03:23:10.282Z,77.30
2022-09-29T03:25:39.206Z,77.47
2022-09-29T03:28:05.959Z,77.14
2022-09-29T03:30:35.456Z,77.69
2022-09-29T03:33:02.190Z,77.70
2022-09-29T03:35:29.024Z,78.16
2022-09-29T03:38:03.104Z,78.65
2022-09-29T03:40:32.116Z,79.23
2022-09-29T03:43:01.310Z,79.54
2022-09-29T03:45:30.321Z,79.71
2022-09-29T03:47:57.018Z,80.15
2022-09-29T03:50:23.759Z,80.24
2022-09-29T03:52:52.850Z,80.14
2022-09-29T03:55:19.607Z,80.13
2022-09-29T03:57:48.816Z,80.10
2022-09-29T04:00:18.061Z,80.19
2022-09-29T04:02:44.851Z,80.51
2022-09-29T04:05:11.682Z,80.70
2022-09-29T04:07:38.719Z,80.55
2022-09-29T04:10:06.220Z,80.34
2022-09-29T04:12:32.971Z,80.98
2022-09-29T04:14:59.728Z,81.01
2022-09-29T04:17:26.641Z,80.69
2022-09-29T04:19:55.593Z,80.73
2022-09-29T04:22:24.766Z,81.01
2022-09-29T04:24:52.207Z,81.02
2022-09-29T04:27:19.096Z,81.07
2022-09-29T04:29:50.675Z,80.75
2022-09-29T04:32:17.365Z,80.93
2022-09-29T04:34:46.391Z,81.12
2022-09-29T04:37:15.384Z,81.05
2022-09-29T04:39:44.587Z,80.81
2022-09-29T04:42:13.876Z,80.68
2022-09-29T04:44:40.431Z,80.86
2022-09-29T04:47:07.100Z,80.70
2022-09-29T04:49:36.287Z,80.67
2022-09-29T04:52:05.344Z,80.41
2022-09-29T04:54:37.852Z,80.13
2022-09-29T04:57:08.265Z,80.02
2022-09-29T04:59:37.595Z,80.07
2022-09-29T05:02:04.268Z,79.99
2022-09-29T05:04:30.945Z,79.54
2022-09-29T05:07:00.105Z,78.88
2022-09-29T05:09:33.827Z,79.19
2022-09-29T05:12:03.293Z,78.93
2022-09-29T05:14:35.159Z,78.86
2022-09-29T05:17:04.343Z,79.13
2022-09-29T05:19:33.385Z,78.98
2022-09-29T05:22:02.629Z,78.70
2022-09-29T05:24:29.279Z,78.50
2022-09-29T05:26:58.447Z,79.02
2022-09-29T05:29:27.774Z,78.63
2022-09-29T05:31:54.616Z,78.40
2022-09-29T05:34:21.502Z,78.58
2022-09-29T05:36:51.075Z,78.48
2022-09-29T05:39:17.819Z,78.90
2022-09-29T05:41:44.497Z,78.50
2022-09-29T05:44:11.443Z,78.25
2022-09-29T05:46:38.134Z,78.13
2022-09-29T05:49:07.220Z,78.79
2022-09-29T05:51:38.607Z,78.75
2022-09-29T05:54:09.001Z,79.26
2022-09-29T05:56:40.731Z,79.77
2022-09-29T05:59:10.480Z,80.35
2022-09-29T06:01:41.954Z,81.91
2022-09-29T06:04:08.619Z,82.68
2022-09-29T06:06:36.750Z,82.98
2022-09-29T06:09:03.604Z,84.15
2022-09-29T06:11:33.039Z,84.69
2022-09-29T06:14:04.813Z,85.46
2022-09-29T06:16:33.385Z,85.94
2022-09-29T06:19:03.892Z,86.59
2022-09-29T06:21:35.380Z,87.07
2022-09-29T06:24:02.357Z,87.18
2022-09-29T06:26:29.724Z,86.40
2022-09-29T06:28:59.943Z,86.69
2022-09-29T06:31:28.114Z,86.78
2022-09-29T06:33:59.864Z,87.74
2022-09-29T06:36:49.920Z,87.17
2022-09-29T06:39:17.285Z,87.53
2022-09-29T06:41:53.530Z,87.06
2022-09-29T06:44:27.872Z,87.93
2022-09-29T06:46:55.384Z,88.43
2022-09-29T06:49:24.620Z,87.57
2022-09-29T06:51:53.330Z,87.18
2022-09-29T06:54:21.954Z,87.52
2022-09-29T06:56:54.286Z,87.40
2022-09-29T06:59:25.635Z,87.47
2022-09-29T07:01:54.668Z,86.57
2022-09-29T07:04:22.005Z,86.42
2022-09-29T07:06:51.790Z,86.86
2022-09-29T07:09:18.870Z,87.44
2022-09-29T07:11:47.307Z,88.17
2022-09-29T07:14:22.717Z,88.44
2022-09-29T07:16:50.259Z,87.75
2022-09-29T07:19:18.269Z,87.48
2022-09-29T07:21:48.806Z,86.89
2022-09-29T07:24:16.224Z,85.73
2022-09-29T07:26:45.640Z,84.22
2022-09-29T07:29:15.529Z,84.63
2022-09-29T07:31:52.032Z,83.93
2022-09-29T07:34:20.557Z,81.81
2022-09-29T07:36:49.871Z,83.23
2022-09-29T07:39:19.762Z,82.56
2022-09-29T07:41:46.997Z,82.70
2022-09-29T07:44:13.875Z,83.69
2022-09-29T07:46:40.978Z,82.67
2022-09-29T07:49:09.874Z,83.17
2022-09-29T07:51:36.902Z,81.67
2022-09-29T07:54:06.402Z,82.24
2022-09-29T07:56:36.077Z,82.02
2022-09-29T07:59:07.163Z,80.70
2022-09-29T08:01:36.212Z,79.89
2022-09-29T08:04:03.118Z,78.88
2022-09-29T08:06:34.462Z,79.89
2022-09-29T08:09:04.965Z,81.02
2022-09-29T08:11:34.828Z,79.42
2022-09-29T08:14:02.247Z,80.27
2022-09-29T08:16:32.005Z,79.22
2022-09-29T08:19:00.153Z,79.97
2022-09-29T08:21:27.774Z,80.02
2022-09-29T08:24:00.490Z,80.70
2022-09-29T08:26:39.658Z,79.47
2022-09-29T08:29:13.339Z,75.82
2022-09-29T08:31:43.802Z,77.36
2022-09-29T08:34:15.556Z,77.72
2022-09-29T08:36:44.908Z,76.26
2022-09-29T08:39:12.173Z,75.69
2022-09-29T08:41:59.543Z,75.68
2022-09-29T08:44:38.984Z,75.08
2022-09-29T08:47:47.500Z,75.30
2022-09-29T08:50:29.728Z,72.20
2022-09-29T08:52:59.666Z,72.94
2022-09-29T08:55:36.273Z,74.36
2022-09-29T08:58:02.963Z,74.32
2022-09-29T09:00:51.086Z,74.16
2022-09-29T09:03:48.769Z,74.19
2022-09-29T09:06:43.159Z,74.14
2022-09-29T09:09:36.264Z,73.27
2022-09-29T09:12:25.103Z,69.82
2022-09-29T09:15:08.795Z,71.03
2022-09-29T09:17:44.218Z,68.84
2022-09-29T09:20:34.613Z,67.05
2022-09-29T09:23:22.371Z,67.31
2022-09-29T09:25:54.114Z,65.82
2022-09-29T09:28:55.738Z,67.19
2022-09-29T09:31:29.077Z,69.55
2022-09-29T09:34:11.290Z,67.66
2022-09-29T09:37:07.588Z,68.82
2022-09-29T09:39:37.865Z,68.20
2022-09-29T09:42:13.685Z,67.54
2022-09-29T09:44:48.551Z,65.68
2022-09-29T09:47:23.716Z,66.75
2022-09-29T09:50:15.772Z,66.92
2022-09-29T09:53:13.070Z,63.96
2022-09-29T09:55:43.203Z,66.58
2022-09-29T09:58:42.549Z,64.61
2022-09-29T10:01:14.550Z,64.71
2022-09-29T10:03:41.281Z,64.56
2022-09-29T10:06:08.839Z,61.64
2022-09-29T10:08:39.853Z,58.58
2022-09-29T10:11:30.807Z,62.16
2022-09-29T10:14:26.137Z,61.74
2022-09-29T10:16:59.439Z,62.31
2022-09-29T10:20:59.486Z,61.87
2022-09-29T10:23:35.414Z,60.46
2022-09-29T10:26:15.415Z,60.07
2022-09-29T10:28:49.322Z,58.04
2022-09-29T10:31:27.030Z,55.06
2022-09-29T10:33:58.026Z,57.57
2022-09-29T10:36:29.130Z,58.29
2022-09-29T10:39:02.338Z,55.52
2022-09-29T10:41:31.044Z,57.19
2022-09-29T10:44:21.232Z,55.49
2022-09-29T10:46:54.864Z,55.86
2022-09-29T10:49:23.531Z,56.42
2022-09-29T10:51:56.246Z,56.91
2022-09-29T10:54:29.776Z,56.54
2022-09-29T10:56:57.488Z,55.97
2022-09-29T10:59:25.369Z,54.01
2022-09-29T11:01:57.035Z,55.43
2022-09-29T11:04:30.845Z,55.41
2022-09-29T11:06:58.554Z,54.34
2022-09-29T11:09:33.016Z,52.24
2022-09-29T11:12:03.093Z,54.57
2022-09-29T11:14:38.422Z,54.94
2022-09-29T11:17:26.527Z,49.87
2022-09-29T11:19:55.636Z,52.66
2022-09-29T11:22:53.181Z,53.03
2022-09-29T11:25:56.646Z,52.96
2022-09-29T11:29:03.511Z,53.54
2022-09-29T11:32:11.401Z,49.31
2022-09-29T11:34:50.053Z,49.67
2022-09-29T11:37:19.724Z,51.03
2022-09-29T11:39:57.217Z,50.04
2022-09-29T11:42:37.868Z,52.49
2022-09-29T11:45:08.261Z,51.35
2022-09-29T11:47:47.033Z,50.83
2022-09-29T11:50:21.919Z,50.92
2022-09-29T11:52:57.663Z,53.23
2022-09-29T11:55:24.314Z,52.18
2022-09-29T11:57:53.201Z,51.06
2022-09-29T12:00:21.919Z,52.25
2022-09-29T12:03:16.865Z,49.81
2022-09-29T12:06:15.108Z,50.03
2022-09-29T12:09:03.573Z,52.34
2022-09-29T12:11:54.742Z,52.76
2022-09-29T12:14:53.933Z,53.89
2022-09-29T12:17:21.101Z,53.87
2022-09-29T12:20:07.006Z,53.95
2022-09-29T12:22:42.910Z,54.31
2022-09-29T12:25:18.973Z,54.26
2022-09-29T12:27:47.520Z,53.66
2022-09-29T12:30:28.567Z,53.97
2022-09-29T12:33:06.568Z,55.09
2022-09-29T12:35:42.635Z,54.79
2022-09-29T12:38:30.467Z,56.06
2022-09-29T12:41:21.295Z,57.15
2022-09-29T12:43:49.398Z,57.86
2022-09-29T12:46:24.947Z,57.96
2022-09-29T12:48:58.201Z,59.18
2022-09-29T12:51:27.925Z,57.14
2022-09-29T12:54:12.450Z,58.77
2022-09-29T12:56:45.407Z,60.06
2022-09-29T12:59:37.409Z,60.85
2022-09-29T13:02:22.972Z,60.24
2022-09-29T13:04:50.517Z,61.12
2022-09-29T13:07:39.802Z,60.82
2022-09-29T13:10:22.167Z,59.69
2022-09-29T13:13:11.491Z,59.45
2022-09-29T13:16:16.326Z,60.63
2022-09-29T13:19:20.468Z,59.09
2022-09-29T13:22:28.199Z,57.51
2022-09-29T13:25:17.551Z,57.22
2022-09-29T13:27:45.525Z,57.23
2022-09-29T13:30:12.946Z,57.22
2022-09-29T13:33:02.246Z,54.96
2022-09-29T13:35:29.277Z,54.75
2022-09-29T13:38:03.293Z,52.59
2022-09-29T13:40:31.494Z,53.37
2022-09-29T13:43:05.498Z,50.77
2022-09-29T13:45:34.940Z,49.70
2022-09-29T13:48:30.887Z,47.77
2022-09-29T13:51:01.765Z,50.77
2022-09-29T13:53:37.790Z,52.71
2022-09-29T13:56:05.005Z,53.82
2022-09-29T13:58:44.074Z,54.87
2022-09-29T14:01:11.165Z,55.79
2022-09-29T14:03:39.152Z,56.44
2022-09-29T14:06:22.719Z,56.65
2022-09-29T14:09:06.914Z,56.53
2022-09-29T14:11:40.278Z,56.78
2022-09-29T14:14:08.393Z,57.62
2022-09-29T14:17:05.480Z,57.44
2022-09-29T14:19:40.498Z,57.43
2022-09-29T14:22:32.165Z,57.77
2022-09-29T14:25:07.879Z,57.78
2022-09-29T14:28:01.433Z,58.13
2022-09-29T14:30:35.834Z,58.15
2022-09-29T14:33:03.205Z,57.87
2022-09-29T14:35:37.033Z,58.06
2022-09-29T14:38:10.681Z,58.17
2022-09-29T14:40:37.458Z,58.28
2022-09-29T14:43:21.046Z,57.92
2022-09-29T14:46:27.712Z,57.81
2022-09-29T14:49:28.164Z,53.28
2022-09-29T14:52:19.148Z,51.86
2022-09-29T14:55:03.541Z,53.08
2022-09-29T14:57:49.738Z,53.77
2022-09-29T15:00:20.161Z,54.99
2022-09-29T15:02:55.538Z,55.73
2022-09-29T15:05:33.818Z,55.64
2022-09-29T15:08:01.801Z,55.85
2022-09-29T15:10:30.756Z,55.50
2022-09-29T15:13:20.062Z,56.49
2022-09-29T15:15:48.601Z,57.44
2022-09-29T15:18:40.003Z,57.65
2022-09-29T15:21:18.655Z,57.11
2022-09-29T15:23:56.029Z,57.49
2022-09-29T15:26:27.857Z,57.23
2022-09-29T15:28:56.793Z,57.48
2022-09-29T15:31:34.195Z,57.82
2022-09-29T15:34:04.176Z,58.32
2022-09-29T15:36:37.593Z,58.32
2022-09-29T15:39:12.498Z,58.68
2022-09-29T15:41:45.204Z,59.07
2022-09-29T15:44:20.107Z,59.63
2022-09-29T15:46:54.247Z,59.38
2022-09-29T15:49:31.818Z,59.43
2022-09-29T15:52:14.930Z,59.70
2022-09-29T15:54:47.550Z,59.86
2022-09-29T15:57:58.002Z,59.82
2022-09-29T16:00:26.752Z,60.27
2022-09-29T16:03:18.223Z,60.43
2022-09-29T16:05:56.841Z,60.76
2022-09-29T16:08:28.830Z,61.40
2022-09-29T16:11:02.483Z,60.84
2022-09-29T16:13:34.547Z,61.26
2022-09-29T16:16:06.413Z,61.47
2022-09-29T16:18:38.565Z,61.84
2022-09-29T16:21:12.554Z,62.00
2022-09-29T16:23:48.172Z,61.49
2022-09-29T16:26:33.355Z,61.72
2022-09-29T16:29:07.936Z,61.17
2022-09-29T16:31:40.910Z,61.52
2022-09-29T16:34:32.165Z,62.19
2022-09-29T16:37:01.670Z,62.08
2022-09-29T16:39:36.141Z,62.95
2022-09-29T16:42:06.589Z,62.80
2022-09-29T16:44:43.709Z,63.24
2022-09-29T16:47:10.806Z,63.53
2022-09-29T16:49:52.639Z,63.36
2022-09-29T16:52:49.148Z,63.45
2022-09-29T16:55:29.790Z,63.68
2022-09-29T16:58:15.802Z,64.18
2022-09-29T17:00:44.842Z,64.21
2022-09-29T17:03:14.287Z,64.51
2022-09-29T17:05:51.930Z,64.56
2022-09-29T17:08:24.405Z,64.84
2022-09-29T17:10:52.161Z,64.28
2022-09-29T17:13:19.612Z,64.66
2022-09-29T17:15:49.786Z,64.76
2022-09-29T17:18:17.813Z,65.00
2022-09-29T17:20:45.070Z,65.47
2022-09-29T17:23:12.254Z,65.56
2022-09-29T17:25:41.314Z,65.65
2022-09-29T17:28:26.185Z,66.13
2022-09-29T17:30:57.956Z,66.04
2022-09-29T17:33:26.951Z,66.30
2022-09-29T17:36:01.349Z,66.27
2022-09-29T17:38:28.550Z,66.59
2022-09-29T17:41:03.880Z,66.81
2022-09-29T17:43:33.962Z,67.13
2022-09-29T17:46:01.345Z,67.04
2022-09-29T17:48:29.373Z,67.23
2022-09-29T17:51:10.333Z,67.34
2022-09-29T17:53:42.535Z,67.65
2022-09-29T17:56:18.190Z,68.22
2022-09-29T17:58:47.100Z,68.34
2022-09-29T18:01:20.414Z,68.27
2022-09-29T18:03:51.247Z,68.40
2022-09-29T18:06:28.420Z,68.88
2022-09-29T18:08:58.226Z,68.76
2022-09-29T18:11:26.527Z,68.56
2022-09-29T18:13:53.573Z,68.35
2022-09-29T18:16:23.030Z,68.59
2022-09-29T18:18:55.517Z,69.04
2022-09-29T18:21:23.851Z,69.36
2022-09-29T18:23:52.697Z,69.65
2022-09-29T18:26:19.528Z,69.88
2022-09-29T18:28:48.937Z,69.97
2022-09-29T18:31:28.775Z,70.24
2022-09-29T18:33:55.592Z,69.98
2022-09-29T18:36:22.536Z,69.94
2022-09-29T18:38:49.380Z,69.71
2022-09-29T18:41:20.179Z,69.41
2022-09-29T18:43:49.584Z,69.33
2022-09-29T18:46:18.745Z,70.02
2022-09-29T18:48:46.029Z,69.77
2022-09-29T18:51:13.431Z,70.15
2022-09-29T18:53:42.493Z,70.40
2022-09-29T18:56:25.125Z,70.16
2022-09-29T18:58:51.868Z,70.17
2022-09-29T19:01:27.743Z,70.04
2022-09-29T19:04:00.212Z,70.05
2022-09-29T19:06:46.596Z,70.12
2022-09-29T19:09:19.130Z,70.63
2022-09-29T19:11:50.684Z,70.76
2022-09-29T19:14:23.289Z,71.05
2022-09-29T19:16:54.750Z,71.45
2022-09-29T19:19:21.703Z,71.50
2022-09-29T19:21:50.937Z,72.18
2022-09-29T19:24:22.638Z,72.64
2022-09-29T19:26:49.337Z,72.98
2022-09-29T19:29:16.049Z,73.00
2022-09-29T19:31:42.796Z,72.74
2022-09-29T19:34:11.740Z,72.85
2022-09-29T19:36:39.212Z,72.94
2022-09-29T19:39:07.981Z,73.16
2022-09-29T19:41:34.835Z,72.98
2022-09-29T19:44:01.799Z,72.91
2022-09-29T19:46:28.671Z,72.73
2022-09-29T19:48:57.621Z,72.80
2022-09-29T19:51:47.260Z,73.28
2022-09-29T19:54:16.591Z,73.43
2022-09-29T19:56:59.691Z,73.13
2022-09-29T19:59:33.706Z,73.14
2022-09-29T20:02:05.497Z,73.32
2022-09-29T20:04:34.942Z,73.05
2022-09-29T20:07:04.487Z,73.55
2022-09-29T20:09:32.268Z,72.97
2022-09-29T20:12:01.752Z,73.11
2022-09-29T20:14:28.313Z,73.67
2022-09-29T20:16:59.906Z,73.34
2022-09-29T20:19:28.104Z,73.24
2022-09-29T20:21:57.273Z,72.94
2022-09-29T20:24:28.856Z,73.05
2022-09-29T20:26:57.562Z,73.16
2022-09-29T20:29:29.823Z,72.83
2022-09-29T20:32:01.089Z,72.66
2022-09-29T20:34:27.784Z,72.56
2022-09-29T20:36:55.328Z,72.79
2022-09-29T20:39:27.287Z,72.79
2022-09-29T20:41:54.489Z,72.84
2022-09-29T20:44:25.585Z,72.68
2022-09-29T20:46:54.071Z,72.68
2022-09-29T20:49:23.111Z,72.36
2022-09-29T20:51:51.690Z,72.30
2022-09-29T20:54:19.096Z,72.43
2022-09-29T20:56:45.834Z,72.07
2022-09-29T20:59:16.507Z,72.44
2022-09-29T21:01:45.609Z,72.60
2022-09-29T21:04:14.602Z,72.57
2022-09-29T21:06:46.363Z,72.18
2022-09-29T21:09:15.801Z,72.02
2022-09-29T21:11:43.513Z,72.01
2022-09-29T21:14:18.567Z,71.80
2022-09-29T21:16:47.142Z,71.91
2022-09-29T21:19:14.552Z,71.48
2022-09-29T21:21:44.231Z,71.71
2022-09-29T21:24:12.507Z,71.46
2022-09-29T21:26:39.575Z,71.73
2022-09-29T21:29:08.948Z,71.46
2022-09-29T21:31:35.659Z,70.96
2022-09-29T21:34:04.798Z,71.06
2022-09-29T21:36:35.173Z,71.07
2022-09-29T21:39:08.753Z,72.06
2022-09-29T21:41:41.242Z,73.31
2022-09-29T21:44:15.514Z,74.24
2022-09-29T21:46:43.100Z,75.44
2022-09-29T21:49:10.720Z,76.23
2022-09-29T21:51:39.928Z,76.42
2022-09-29T21:54:10.104Z,76.79
2022-09-29T21:56:40.522Z,76.86
2022-09-29T21:59:14.678Z,77.23
2022-09-29T22:01:44.142Z,77.01
2022-09-29T22:04:13.795Z,77.49
2022-09-29T22:06:45.087Z,77.52
2022-09-29T22:09:15.856Z,77.32
2022-09-29T22:11:45.443Z,77.53
2022-09-29T22:14:13.552Z,76.63
2022-09-29T22:16:43.762Z,77.10
2022-09-29T22:19:23.032Z,77.32
2022-09-29T22:21:51.034Z,77.67
2022-09-29T22:24:23.951Z,77.03
2022-09-29T22:26:51.028Z,77.22
2022-09-29T22:29:20.536Z,77.38
2022-09-29T22:31:47.579Z,77.33
2022-09-29T22:34:14.584Z,77.41
2022-09-29T22:36:43.460Z,77.46
2022-09-29T22:39:15.776Z,77.92
2022-09-29T22:41:43.555Z,78.30
2022-09-29T22:44:12.562Z,78.42
2022-09-29T22:46:41.996Z,77.85
2022-09-29T22:49:08.823Z,77.25
2022-09-29T22:51:36.553Z,77.22
2022-09-29T22:54:05.604Z,77.23
2022-09-29T22:56:35.003Z,77.20
2022-09-29T22:59:04.238Z,76.88
2022-09-29T23:01:34.556Z,76.84
2022-09-29T23:04:04.284Z,76.98
2022-09-29T23:06:34.008Z,76.85
2022-09-29T23:09:00.822Z,77.25
2022-09-29T23:11:27.574Z,78.30
2022-09-29T23:13:54.242Z,78.82
2022-09-29T23:16:21.465Z,79.69
2022-09-29T23:18:55.210Z,79.77
2022-09-29T23:21:23.187Z,80.61
2022-09-29T23:24:08.076Z,80.69
2022-09-29T23:26:35.021Z,80.97
2022-09-29T23:29:04.907Z,82.27
2022-09-29T23:31:36.404Z,83.47
2022-09-29T23:34:05.698Z,84.86
2022-09-29T23:36:32.801Z,85.69
2022-09-29T23:39:13.663Z,86.15
2022-09-29T23:41:49.124Z,86.80
2022-09-29T23:44:18.531Z,86.28
2022-09-29T23:46:45.204Z,88.24
2022-09-29T23:49:14.516Z,88.18
2022-09-29T23:51:42.440Z,90.10
2022-09-29T23:54:10.992Z,90.03
2022-09-29T23:56:38.164Z,90.11
2022-09-29T23:59:06.311Z,89.67
